createdAt,value
2023-02-15T00:01:42.999Z,40.03
2023-02-15T00:04:11.071Z,37.78
2023-02-15T00:06:37.570Z,37.75
2023-02-15T00:09:04.252Z,41.97
2023-02-15T00:11:50.009Z,39.15
2023-02-15T00:14:22.328Z,35.28
2023-02-15T00:16:50.771Z,35.83
2023-02-15T00:19:19.291Z,37.17
2023-02-15T00:21:46.945Z,33.58
2023-02-15T00:24:15.685Z,36.92
2023-02-15T00:26:43.513Z,36.53
2023-02-15T00:29:11.654Z,38.28
2023-02-15T00:31:38.546Z,33.92
2023-02-15T00:34:07.785Z,34.60
2023-02-15T00:36:35.761Z,32.92
2023-02-15T00:39:02.360Z,34.42
2023-02-15T00:41:28.901Z,35.28
2023-02-15T00:43:55.526Z,33.03
2023-02-15T00:46:22.825Z,37.75
2023-02-15T00:48:49.800Z,31.10
2023-02-15T00:51:16.757Z,31.92
2023-02-15T00:53:44.815Z,35.50
2023-02-15T00:56:11.982Z,32.22
2023-02-15T00:58:38.638Z,34.25
2023-02-15T01:01:08.114Z,40.33
2023-02-15T01:03:35.452Z,35.38
2023-02-15T01:06:03.810Z,37.47
2023-02-15T01:08:31.297Z,37.15
2023-02-15T01:10:58.103Z,40.97
2023-02-15T01:13:24.805Z,37.85
2023-02-15T01:15:55.853Z,41.33
2023-02-15T01:18:23.272Z,39.67
2023-02-15T01:20:50.325Z,33.47
2023-02-15T01:23:17.078Z,33.83
2023-02-15T01:25:46.336Z,38.03
2023-02-15T01:28:13.282Z,36.05
2023-02-15T01:30:39.963Z,36.92
2023-02-15T01:33:06.566Z,35.28
2023-02-15T01:35:33.589Z,36.92
2023-02-15T01:38:00.252Z,35.50
2023-02-15T01:40:26.846Z,40.20
2023-02-15T01:42:54.941Z,38.55
2023-02-15T01:45:23.987Z,36.95
2023-02-15T01:48:03.024Z,36.20
2023-02-15T01:50:32.652Z,37.50
2023-02-15T01:53:06.916Z,38.30
2023-02-15T01:55:38.102Z,38.80
2023-02-15T01:58:05.073Z,36.33
2023-02-15T02:00:32.557Z,43.38
2023-02-15T02:02:59.441Z,38.13
2023-02-15T02:05:26.890Z,39.15
2023-02-15T02:07:57.159Z,41.13
2023-02-15T02:10:24.380Z,41.78
2023-02-15T02:12:55.122Z,40.10
2023-02-15T02:15:48.207Z,38.25
2023-02-15T02:21:43.800Z,38.95
2023-02-15T02:24:44.892Z,36.78
2023-02-15T02:27:22.020Z,36.65
2023-02-15T02:30:07.401Z,37.65
2023-02-15T02:33:00.857Z,39.63
2023-02-15T02:35:33.644Z,35.55
2023-02-15T02:38:17.675Z,41.05
2023-02-15T02:40:57.178Z,36.92
2023-02-15T02:43:34.484Z,38.85
2023-02-15T02:46:11.079Z,40.38
2023-02-15T02:48:39.242Z,39.17
2023-02-15T02:51:05.788Z,37.58
2023-02-15T02:53:34.472Z,39.65
2023-02-15T02:56:11.726Z,37.10
2023-02-15T02:58:50.021Z,36.75
2023-02-15T03:01:23.537Z,37.15
2023-02-15T03:04:32.251Z,39.05
2023-02-15T03:07:02.433Z,36.28
2023-02-15T03:09:43.915Z,42.83
2023-02-15T03:12:22.552Z,42.47
2023-02-15T03:14:57.037Z,44.30
2023-02-15T03:17:27.325Z,40.35
2023-02-15T03:19:58.821Z,37.47
2023-02-15T03:22:37.636Z,45.55
2023-02-15T03:25:31.679Z,41.65
2023-02-15T03:28:06.065Z,38.22
2023-02-15T03:30:35.391Z,43.17
2023-02-15T03:33:03.899Z,42.33
2023-02-15T03:35:40.156Z,37.45
2023-02-15T03:38:10.160Z,42.78
2023-02-15T03:41:03.851Z,41.13
2023-02-15T03:43:53.076Z,43.67
2023-02-15T03:46:29.663Z,46.80
2023-02-15T03:49:07.575Z,41.63
2023-02-15T03:51:39.013Z,42.15
2023-02-15T03:54:44.113Z,41.42
2023-02-15T03:57:41.388Z,42.40
2023-02-15T04:00:42.230Z,47.40
2023-02-15T04:03:23.491Z,42.88
2023-02-15T04:05:50.164Z,40.15
2023-02-15T04:08:16.750Z,44.22
2023-02-15T04:10:57.071Z,42.05
2023-02-15T04:13:31.675Z,41.80
2023-02-15T04:16:05.109Z,44.78
2023-02-15T04:18:59.201Z,46.28
2023-02-15T04:21:46.416Z,48.85
2023-02-15T04:24:32.621Z,45.85
2023-02-15T04:27:00.224Z,44.70
2023-02-15T04:29:28.146Z,40.45
2023-02-15T04:31:56.315Z,44.70
2023-02-15T04:34:23.104Z,45.05
2023-02-15T04:36:51.186Z,46.63
2023-02-15T04:39:18.980Z,44.58
2023-02-15T04:41:45.588Z,42.60
2023-02-15T04:44:12.408Z,44.65
2023-02-15T04:46:39.182Z,50.35
2023-02-15T04:49:05.726Z,46.08
2023-02-15T04:51:32.270Z,43.45
2023-02-15T04:53:58.823Z,51.67
2023-02-15T04:56:25.349Z,50.97
2023-02-15T04:58:51.942Z,47.22
2023-02-15T05:01:19.875Z,46.25
2023-02-15T05:03:46.456Z,43.38
2023-02-15T05:06:13.053Z,47.10
2023-02-15T05:08:39.520Z,48.20
2023-02-15T05:11:06.104Z,51.30
2023-02-15T05:13:32.642Z,48.63
2023-02-15T05:15:59.483Z,43.33
2023-02-15T05:18:26.574Z,50.08
2023-02-15T05:20:53.277Z,50.03
2023-02-15T05:23:19.873Z,50.42
2023-02-15T05:26:09.656Z,46.75
2023-02-15T05:28:37.985Z,49.58
2023-02-15T05:31:14.313Z,55.75
2023-02-15T05:33:41.587Z,50.97
2023-02-15T05:36:09.017Z,51.20
2023-02-15T05:38:37.753Z,47.53
2023-02-15T05:41:08.560Z,46.70
2023-02-15T05:43:35.611Z,52.92
2023-02-15T05:46:03.113Z,49.35
2023-02-15T05:48:29.921Z,45.22
2023-02-15T05:51:04.290Z,48.90
2023-02-15T05:53:33.553Z,44.97
2023-02-15T05:56:01.484Z,48.50
2023-02-15T05:58:30.970Z,47.65
2023-02-15T06:00:57.799Z,51.83
2023-02-15T06:03:26.639Z,47.30
2023-02-15T06:05:53.665Z,45.95
2023-02-15T06:08:20.424Z,46.08
2023-02-15T06:10:47.416Z,49.50
2023-02-15T06:13:14.046Z,48.25
2023-02-15T06:15:40.661Z,47.13
2023-02-15T06:18:10.394Z,51.25
2023-02-15T06:20:37.016Z,48.35
2023-02-15T06:23:03.642Z,46.03
2023-02-15T06:25:31.182Z,55.05
2023-02-15T06:27:57.900Z,46.47
2023-02-15T06:30:24.506Z,55.05
2023-02-15T06:32:51.082Z,46.95
2023-02-15T06:35:17.652Z,47.17
2023-02-15T06:37:47.541Z,44.20
2023-02-15T06:40:14.270Z,46.05
2023-02-15T06:42:41.704Z,51.10
2023-02-15T06:45:08.855Z,47.78
2023-02-15T06:47:35.780Z,53.30
2023-02-15T06:50:02.657Z,56.92
2023-02-15T06:52:30.456Z,54.42
2023-02-15T06:54:57.077Z,57.58
2023-02-15T06:57:23.686Z,50.30
2023-02-15T06:59:50.307Z,51.60
2023-02-15T07:02:16.931Z,52.80
2023-02-15T07:04:43.603Z,51.30
2023-02-15T07:07:12.328Z,53.65
2023-02-15T07:09:39.676Z,53.17
2023-02-15T07:12:25.490Z,56.60
2023-02-15T07:14:52.611Z,55.88
2023-02-15T07:17:36.135Z,54.72
2023-02-15T07:20:06.222Z,53.75
2023-02-15T07:22:34.887Z,53.17
2023-02-15T07:25:01.800Z,52.92
2023-02-15T07:27:28.580Z,51.90
2023-02-15T07:29:55.184Z,52.85
2023-02-15T07:32:21.788Z,56.78
2023-02-15T07:34:48.443Z,59.42
2023-02-15T07:37:15.027Z,57.72
2023-02-15T07:39:41.575Z,62.80
2023-02-15T07:42:08.114Z,56.78
2023-02-15T07:44:36.443Z,55.75
2023-02-15T07:47:03.114Z,57.35
2023-02-15T07:49:29.667Z,48.83
2023-02-15T07:51:56.307Z,45.55
2023-02-15T07:54:22.916Z,44.95
2023-02-15T07:56:49.486Z,44.58
2023-02-15T07:59:16.087Z,44.40
2023-02-15T08:01:42.752Z,45.92
2023-02-15T08:04:11.887Z,46.00
2023-02-15T08:06:39.005Z,37.53
2023-02-15T08:09:07.672Z,38.97
2023-02-15T08:11:37.540Z,38.20
2023-02-15T08:14:14.384Z,40.97
2023-02-15T08:16:58.031Z,38.53
2023-02-15T08:19:30.618Z,40.63
2023-02-15T08:24:27.728Z,34.83
2023-02-15T08:26:54.727Z,36.80
2023-02-15T08:29:24.726Z,41.65
2023-02-15T08:31:54.776Z,35.85
2023-02-15T08:34:22.173Z,36.20
2023-02-15T08:36:48.758Z,33.75
2023-02-15T08:39:16.117Z,36.05
2023-02-15T08:41:44.884Z,40.42
2023-02-15T08:44:11.847Z,34.00
2023-02-15T08:46:41.601Z,37.92
2023-02-15T08:49:08.846Z,34.65
2023-02-15T08:51:37.952Z,35.08
2023-02-15T08:54:09.898Z,36.85
2023-02-15T08:56:39.754Z,35.90
2023-02-15T08:59:08.368Z,35.15
2023-02-15T09:01:36.102Z,36.72
2023-02-15T09:04:06.320Z,36.80
2023-02-15T09:06:33.765Z,31.10
2023-02-15T09:09:00.508Z,33.85
2023-02-15T09:11:33.768Z,34.35
2023-02-15T09:14:03.177Z,32.33
2023-02-15T09:16:32.677Z,33.97
2023-02-15T09:19:02.121Z,27.95
2023-02-15T09:21:29.722Z,32.22
2023-02-15T09:24:00.628Z,36.80
2023-02-15T09:26:29.193Z,33.33
2023-02-15T09:28:58.859Z,36.80
2023-02-15T09:31:28.128Z,33.63
2023-02-15T09:33:55.680Z,30.08
2023-02-15T09:36:39.356Z,33.08
2023-02-15T09:39:18.251Z,32.75
2023-02-15T09:41:56.627Z,33.80
2023-02-15T09:44:58.554Z,30.52
2023-02-15T09:48:03.750Z,32.83
2023-02-15T09:50:54.868Z,29.45
2023-02-15T09:53:54.035Z,29.77
2023-02-15T09:56:49.132Z,28.98
2023-02-15T09:59:24.283Z,33.05
2023-02-15T10:02:15.020Z,33.97
2023-02-15T10:05:01.238Z,34.72
2023-02-15T10:07:51.778Z,34.45
2023-02-15T10:10:48.402Z,31.95
2023-02-15T10:13:20.651Z,32.25
2023-02-15T10:16:11.989Z,33.40
2023-02-15T10:18:50.350Z,29.33
2023-02-15T10:21:47.771Z,32.42
2023-02-15T10:24:22.701Z,34.22
2023-02-15T10:26:50.176Z,32.97
2023-02-15T10:29:37.368Z,31.85
2023-02-15T10:32:25.863Z,27.42
2023-02-15T10:35:16.886Z,30.85
2023-02-15T10:38:03.445Z,34.30
2023-02-15T10:40:36.151Z,34.42
2023-02-15T10:43:19.193Z,28.73
2023-02-15T10:46:00.991Z,29.23
2023-02-15T10:48:42.852Z,32.40
2023-02-15T10:51:19.725Z,30.60
2023-02-15T10:54:07.180Z,32.97
2023-02-15T10:56:46.125Z,32.97
2023-02-15T10:59:41.917Z,30.40
2023-02-15T11:02:24.248Z,31.77
2023-02-15T11:05:12.032Z,35.38
2023-02-15T11:07:45.952Z,31.08
2023-02-15T11:10:18.342Z,29.90
2023-02-15T11:15:26.983Z,34.97
2023-02-15T11:18:03.574Z,31.83
2023-02-15T11:20:44.759Z,30.88
2023-02-15T11:23:17.331Z,35.05
2023-02-15T11:28:20.649Z,30.92
2023-02-15T11:30:53.141Z,30.15
2023-02-15T11:35:54.698Z,35.20
2023-02-15T11:38:25.723Z,32.70
2023-02-15T11:41:05.019Z,29.27
2023-02-15T11:43:35.053Z,30.20
2023-02-15T11:46:02.207Z,32.95
2023-02-15T11:48:31.692Z,36.00
2023-02-15T11:50:59.581Z,34.60
2023-02-15T11:53:29.598Z,30.35
2023-02-15T11:55:56.802Z,31.60
2023-02-15T11:58:26.151Z,28.52
2023-02-15T12:00:59.158Z,35.08
2023-02-15T12:03:45.390Z,34.05
2023-02-15T12:06:33.200Z,32.30
2023-02-15T12:09:37.064Z,34.22
2023-02-15T12:12:29.441Z,33.72
2023-02-15T12:15:17.908Z,32.70
2023-02-15T12:17:55.690Z,34.33
2023-02-15T12:20:29.875Z,32.33
2023-02-15T12:23:03.308Z,33.90
2023-02-15T12:25:43.401Z,30.73
2023-02-15T12:28:27.795Z,35.03
2023-02-15T12:30:56.463Z,36.58
2023-02-15T12:33:36.435Z,32.40
2023-02-15T12:36:24.938Z,32.78
2023-02-15T12:39:12.644Z,34.50
2023-02-15T12:41:47.880Z,36.58
2023-02-15T12:44:20.667Z,33.83
2023-02-15T12:47:08.206Z,35.30
2023-02-15T12:49:39.317Z,36.33
2023-02-15T12:52:23.376Z,32.80
2023-02-15T12:54:51.377Z,36.25
2023-02-15T12:57:30.646Z,34.10
2023-02-15T12:59:58.773Z,30.63
2023-02-15T13:02:31.483Z,35.33
2023-02-15T13:05:05.593Z,46.17
2023-02-15T13:07:33.102Z,33.83
2023-02-15T13:10:00.035Z,33.70
2023-02-15T13:12:31.513Z,32.72
2023-02-15T13:15:00.140Z,30.37
2023-02-15T13:17:33.473Z,32.70
2023-02-15T13:20:10.395Z,30.88
2023-02-15T13:22:45.592Z,34.45
2023-02-15T13:25:18.103Z,32.83
2023-02-15T13:27:47.003Z,35.70
2023-02-15T13:30:35.790Z,35.92
2023-02-15T13:33:10.047Z,32.55
2023-02-15T13:35:45.480Z,34.85
2023-02-15T13:38:30.179Z,31.35
2023-02-15T13:41:02.609Z,32.38
2023-02-15T13:43:43.564Z,34.83
2023-02-15T13:46:10.151Z,31.58
2023-02-15T13:48:56.392Z,32.45
2023-02-15T13:51:30.513Z,33.88
2023-02-15T13:54:38.837Z,32.55
2023-02-15T13:57:42.848Z,33.03
2023-02-15T14:00:09.438Z,35.78
2023-02-15T14:05:29.853Z,38.35
2023-02-15T14:08:11.159Z,36.67
2023-02-15T14:11:07.030Z,32.42
2023-02-15T14:13:42.440Z,38.42
2023-02-15T14:16:33.752Z,34.53
2023-02-15T14:19:09.712Z,36.92
2023-02-15T14:21:47.143Z,33.78
2023-02-15T14:24:36.605Z,36.95
2023-02-15T14:27:19.817Z,35.67
2023-02-15T14:30:01.169Z,33.42
2023-02-15T14:32:40.189Z,37.45
2023-02-15T14:35:15.459Z,35.45
2023-02-15T14:37:47.330Z,38.15
2023-02-15T14:40:43.231Z,34.15
2023-02-15T14:43:16.385Z,37.58
2023-02-15T14:45:53.205Z,39.33
2023-02-15T14:48:39.007Z,37.17
2023-02-15T14:51:05.803Z,34.65
2023-02-15T14:53:32.389Z,33.70
2023-02-15T14:56:11.485Z,32.15
2023-02-15T14:58:38.986Z,36.15
2023-02-15T15:01:11.314Z,36.25
2023-02-15T15:03:49.516Z,38.58
2023-02-15T15:06:34.095Z,37.05
2023-02-15T15:09:23.455Z,34.55
2023-02-15T15:11:51.831Z,39.70
2023-02-15T15:14:44.829Z,35.15
2023-02-15T15:19:52.008Z,37.40
2023-02-15T15:22:25.327Z,32.95
2023-02-15T15:25:00.738Z,32.63
2023-02-15T15:27:49.591Z,30.88
2023-02-15T15:30:19.037Z,41.92
2023-02-15T15:32:54.704Z,40.03
2023-02-15T15:35:36.403Z,45.05
2023-02-15T15:38:21.561Z,39.08
2023-02-15T15:41:03.021Z,33.75
2023-02-15T15:43:55.181Z,39.17
2023-02-15T15:46:52.676Z,40.73
2023-02-15T15:49:22.134Z,37.80
2023-02-15T15:51:49.555Z,40.47
2023-02-15T15:54:25.419Z,39.88
2023-02-15T15:56:59.007Z,38.28
2023-02-15T15:59:28.805Z,40.33
2023-02-15T16:01:56.093Z,38.85
2023-02-15T16:04:31.008Z,40.10
2023-02-15T16:06:59.159Z,39.15
2023-02-15T16:09:28.294Z,37.45
2023-02-15T16:12:01.283Z,38.20
2023-02-15T16:14:39.080Z,39.15
2023-02-15T16:17:09.312Z,43.53
2023-02-15T16:19:41.718Z,42.22
2023-02-15T16:22:22.683Z,36.33
2023-02-15T16:25:43.170Z,35.30
2023-02-15T16:28:13.418Z,35.67
2023-02-15T16:30:43.020Z,37.88
2023-02-15T16:33:15.905Z,34.03
2023-02-15T16:35:55.565Z,38.53
2023-02-15T16:38:45.394Z,41.72
2023-02-15T16:41:36.567Z,35.45
2023-02-15T16:44:13.260Z,42.63
2023-02-15T16:46:47.212Z,37.13
2023-02-15T16:49:20.836Z,39.92
2023-02-15T16:52:00.833Z,38.08
2023-02-15T16:54:30.040Z,38.50
2023-02-15T16:56:57.011Z,36.72
2023-02-15T16:59:41.047Z,40.05
2023-02-15T17:02:37.195Z,38.28
2023-02-15T17:05:14.569Z,32.78
2023-02-15T17:07:43.458Z,37.70
2023-02-15T17:10:38.284Z,35.67
2023-02-15T17:13:11.602Z,35.40
2023-02-15T17:16:01.118Z,37.08
2023-02-15T17:18:34.505Z,37.65
2023-02-15T17:21:11.765Z,43.20
2023-02-15T17:23:44.194Z,53.58
2023-02-15T17:26:22.152Z,42.60
2023-02-15T17:28:52.376Z,44.13
2023-02-15T17:31:21.175Z,42.88
2023-02-15T17:33:48.827Z,46.03
2023-02-15T17:36:23.161Z,43.83
2023-02-15T17:38:58.795Z,50.90
2023-02-15T17:41:30.106Z,42.53
2023-02-15T17:43:56.847Z,41.53
2023-02-15T17:46:24.532Z,38.38
2023-02-15T17:48:54.741Z,42.40
2023-02-15T17:51:22.767Z,40.92
2023-02-15T17:54:08.801Z,33.67
2023-02-15T17:56:37.625Z,46.42
2023-02-15T17:59:07.955Z,46.10
2023-02-15T18:01:55.678Z,43.63
2023-02-15T18:04:41.857Z,43.75
2023-02-15T18:07:31.797Z,39.25
2023-02-15T18:10:17.047Z,40.78
2023-02-15T18:12:43.767Z,43.45
2023-02-15T18:15:13.721Z,41.42
2023-02-15T18:17:46.835Z,40.63
2023-02-15T18:20:24.371Z,40.67
2023-02-15T18:22:51.932Z,39.33
2023-02-15T18:25:22.621Z,39.28
2023-02-15T18:27:49.257Z,48.08
2023-02-15T18:30:18.515Z,39.95
2023-02-15T18:32:47.412Z,52.80
2023-02-15T18:35:16.343Z,38.15
2023-02-15T18:37:43.274Z,37.97
2023-02-15T18:40:16.158Z,45.70
2023-02-15T18:42:47.006Z,42.78
2023-02-15T18:45:27.460Z,53.95
2023-02-15T18:47:55.112Z,49.50
2023-02-15T18:50:23.053Z,42.38
2023-02-15T18:52:53.665Z,44.88
2023-02-15T18:55:23.024Z,50.67
2023-02-15T18:57:52.178Z,40.55
2023-02-15T19:00:22.201Z,39.85
2023-02-15T19:02:49.001Z,43.75
2023-02-15T19:05:17.830Z,46.13
2023-02-15T19:07:50.960Z,42.28
2023-02-15T19:10:20.448Z,47.85
2023-02-15T19:12:48.425Z,39.92
2023-02-15T19:15:20.912Z,43.20
2023-02-15T19:17:47.544Z,40.20
2023-02-15T19:20:20.072Z,48.13
2023-02-15T19:22:49.056Z,50.47
2023-02-15T19:25:21.109Z,37.72
2023-02-15T19:27:48.097Z,39.70
2023-02-15T19:30:32.941Z,39.88
2023-02-15T19:33:00.364Z,43.22
2023-02-15T19:35:34.297Z,46.92
2023-02-15T19:38:05.925Z,50.25
2023-02-15T19:40:35.134Z,35.07
2023-02-15T19:43:02.990Z,45.28
2023-02-15T19:45:31.798Z,46.03
2023-02-15T19:48:01.259Z,51.13
2023-02-15T19:50:33.075Z,44.42
2023-02-15T19:53:01.541Z,52.58
2023-02-15T19:55:30.685Z,48.78
2023-02-15T19:57:59.069Z,46.72
2023-02-15T20:00:29.730Z,57.03
2023-02-15T20:02:59.107Z,57.85
2023-02-15T20:05:34.821Z,56.50
2023-02-15T20:08:03.931Z,53.65
2023-02-15T20:10:31.760Z,53.20
2023-02-15T20:12:59.000Z,55.10
2023-02-15T20:15:29.490Z,52.38
2023-02-15T20:17:58.131Z,50.67
2023-02-15T20:20:31.890Z,52.80
2023-02-15T20:22:58.508Z,50.40
2023-02-15T20:25:27.889Z,43.42
2023-02-15T20:27:55.575Z,51.72
2023-02-15T20:30:24.759Z,50.10
2023-02-15T20:32:51.759Z,49.45
2023-02-15T20:35:23.839Z,43.80
2023-02-15T20:37:55.722Z,53.85
2023-02-15T20:40:31.669Z,44.37
2023-02-15T20:42:58.257Z,49.55
2023-02-15T20:45:27.512Z,45.13
2023-02-15T20:47:54.148Z,53.72
2023-02-15T20:50:23.940Z,55.17
2023-02-15T20:52:53.019Z,57.70
2023-02-15T20:55:25.882Z,57.33
2023-02-15T20:57:53.037Z,61.92
2023-02-15T21:00:22.212Z,52.22
2023-02-15T21:03:01.089Z,51.42
2023-02-15T21:05:30.722Z,68.50
2023-02-15T21:07:57.763Z,54.00
2023-02-15T21:10:27.998Z,50.58
2023-02-15T21:12:55.349Z,55.70
2023-02-15T21:15:26.588Z,54.65
2023-02-15T21:17:53.799Z,62.55
2023-02-15T21:20:20.506Z,70.35
2023-02-15T21:22:47.991Z,74.93
2023-02-15T21:25:34.195Z,66.82
2023-02-15T21:28:01.030Z,59.50
2023-02-15T21:30:27.748Z,63.42
2023-02-15T21:32:54.683Z,58.17
2023-02-15T21:35:21.953Z,54.13
2023-02-15T21:37:51.125Z,56.97
2023-02-15T21:40:21.873Z,55.15
2023-02-15T21:43:07.468Z,66.07
2023-02-15T21:45:52.737Z,56.20
2023-02-15T21:48:21.683Z,59.53
2023-02-15T21:51:09.026Z,59.90
2023-02-15T21:53:42.285Z,63.10
2023-02-15T21:56:12.123Z,58.22
2023-02-15T21:58:38.662Z,66.15
2023-02-15T22:01:05.901Z,67.07
2023-02-15T22:03:35.750Z,61.30
2023-02-15T22:06:02.749Z,65.25
2023-02-15T22:08:29.536Z,60.75
2023-02-15T22:10:56.633Z,61.05
2023-02-15T22:13:31.417Z,56.38
2023-02-15T22:15:58.842Z,64.75
2023-02-15T22:18:31.399Z,57.95
2023-02-15T22:20:59.941Z,60.13
2023-02-15T22:23:26.565Z,64.95
2023-02-15T22:26:02.334Z,74.40
2023-02-15T22:28:34.420Z,68.47
2023-02-15T22:31:01.719Z,63.20
2023-02-15T22:33:30.870Z,55.72
2023-02-15T22:35:58.436Z,55.08
2023-02-15T22:38:25.147Z,58.55
2023-02-15T22:40:55.156Z,60.47
2023-02-15T22:43:23.304Z,55.42
2023-02-15T22:45:50.514Z,60.97
2023-02-15T22:48:22.406Z,60.20
2023-02-15T22:50:49.351Z,55.50
2023-02-15T22:53:15.962Z,58.22
2023-02-15T22:55:42.620Z,51.55
2023-02-15T22:58:16.194Z,65.93
2023-02-15T23:00:43.366Z,63.17
2023-02-15T23:03:21.249Z,54.50
2023-02-15T23:05:48.237Z,66.85
2023-02-15T23:08:15.168Z,54.22
2023-02-15T23:10:44.332Z,60.67
2023-02-15T23:13:24.162Z,53.03
2023-02-15T23:15:58.150Z,47.17
2023-02-15T23:21:01.845Z,53.72
2023-02-15T23:23:40.946Z,60.03
2023-02-15T23:26:16.581Z,56.90
2023-02-15T23:28:43.302Z,52.15
2023-02-15T23:31:31.639Z,59.20
2023-02-15T23:34:00.321Z,51.30
2023-02-15T23:36:38.968Z,51.10
2023-02-15T23:39:34.749Z,57.75
2023-02-15T23:42:05.066Z,53.28
2023-02-15T23:44:32.149Z,62.58
2023-02-15T23:46:59.267Z,64.20
2023-02-15T23:49:25.844Z,59.63
2023-02-15T23:51:55.805Z,63.10
2023-02-15T23:54:26.342Z,67.07
2023-02-15T23:56:56.664Z,63.90
2023-02-15T23:59:27.165Z,55.90
